Time;durP1;ratioP1;P1;durP2;ratioP2;P2;SDS_P1;SDS_P2;PMS_P1;PMS_P2;Temp;Humidity;BMP_temperature;BMP_pressure;BME280_temperature;BME280_humidity;BME280_pressure;Samples;Min_cycle;Max_cycle;Signal;HPM_P1;HPM_P2
2024/02/21 00:01:48;;;;;;;10.87;5.63;;;;;;;;;;765513;183;912525;-65
2024/02/21 00:04:16;;;;;;;10.87;4.87;;;;;;;;;;763923;182;919615;-66
2024/02/21 00:06:40;;;;;;;9.20;4.70;;;;;;;;;;768333;183;921703;-66
2024/02/21 00:09:06;;;;;;;14.83;6.17;;;;;;;;;;756518;181;1021537;-66
2024/02/21 00:11:32;;;;;;;15.32;6.37;;;;;;;;;;762836;183;932442;-65
2024/02/21 00:13:58;;;;;;;11.20;6.03;;;;;;;;;;761682;183;917626;-66
2024/02/21 00:16:24;;;;;;;11.67;6.10;;;;;;;;;;768902;182;930771;-66
2024/02/21 00:18:50;;;;;;;15.43;5.73;;;;;;;;;;761203;182;918549;-66
2024/02/21 00:21:17;;;;;;;21.13;8.50;;;;;;;;;;765552;181;917513;-66
2024/02/21 00:23:41;;;;;;;10.73;5.97;;;;;;;;;;767691;183;918351;-65
2024/02/21 00:26:07;;;;;;;12.60;6.27;;;;;;;;;;762269;182;919345;-65
2024/02/21 00:28:33;;;;;;;14.07;7.23;;;;;;;;;;768145;180;918060;-66
2024/02/21 00:30:59;;;;;;;19.87;6.50;;;;;;;;;;761236;183;1022382;-66
2024/02/21 00:33:25;;;;;;;12.20;5.93;;;;;;;;;;761663;182;934139;-65
2024/02/21 00:35:50;;;;;;;12.60;5.80;;;;;;;;;;755086;182;1013094;-66
2024/02/21 00:38:16;;;;;;;11.20;6.30;;;;;;;;;;762651;183;919037;-66
2024/02/21 00:40:42;;;;;;;14.97;6.70;;;;;;;;;;768935;181;919719;-66
2024/02/21 00:43:08;;;;;;;13.87;6.67;;;;;;;;;;764013;181;1020807;-66
2024/02/21 00:45:34;;;;;;;21.93;9.27;;;;;;;;;;762490;182;918615;-66
2024/02/21 00:48:00;;;;;;;10.83;6.87;;;;;;;;;;766814;182;918723;-66
2024/02/21 00:50:26;;;;;;;9.83;5.90;;;;;;;;;;763988;182;1019908;-66
2024/02/21 00:52:51;;;;;;;24.07;6.27;;;;;;;;;;763873;182;918162;-65
2024/02/21 00:55:17;;;;;;;14.93;6.30;;;;;;;;;;767871;182;1123594;-66
2024/02/21 00:57:43;;;;;;;14.67;6.20;;;;;;;;;;762565;183;923196;-66
2024/02/21 01:00:10;;;;;;;15.03;6.57;;;;;;;;;;761431;182;984586;-68
2024/02/21 01:02:35;;;;;;;16.80;6.00;;;;;;;;;;762643;183;918409;-66
2024/02/21 01:05:01;;;;;;;13.97;6.53;;;;;;;;;;751609;185;914503;-65
2024/02/21 01:07:27;;;;;;;10.50;5.53;;;;;;;;;;754694;183;919567;-66
2024/02/21 01:09:53;;;;;;;16.03;5.23;;;;;;;;;;763154;182;1021022;-66
2024/02/21 01:12:19;;;;;;;14.52;5.97;;;;;;;;;;763158;183;919107;-65
2024/02/21 01:14:46;;;;;;;9.87;6.10;;;;;;;;;;760229;183;919367;-66
2024/02/21 01:17:11;;;;;;;16.27;5.77;;;;;;;;;;763751;181;918868;-66
2024/02/21 01:19:37;;;;;;;18.48;5.68;;;;;;;;;;767985;181;918925;-65
2024/02/21 01:22:02;;;;;;;17.60;6.80;;;;;;;;;;762444;183;921115;-66
2024/02/21 01:24:28;;;;;;;15.90;5.50;;;;;;;;;;764039;183;918147;-65
2024/02/21 01:26:54;;;;;;;11.13;5.30;;;;;;;;;;759946;181;1017153;-66
2024/02/21 01:29:20;;;;;;;17.30;5.70;;;;;;;;;;762263;182;919287;-65
2024/02/21 01:31:47;;;;;;;13.73;5.57;;;;;;;;;;762896;182;916073;-66
2024/02/21 01:34:12;;;;;;;12.60;6.70;;;;;;;;;;763841;182;1021169;-66
2024/02/21 01:36:38;;;;;;;11.03;5.73;;;;;;;;;;768843;183;917225;-65
2024/02/21 01:39:03;;;;;;;23.93;6.27;;;;;;;;;;765616;181;1025282;-65
2024/02/21 01:41:30;;;;;;;16.15;8.93;;;;;;;;;;764611;182;1030472;-66
2024/02/21 01:43:56;;;;;;;14.50;6.00;;;;;;;;;;769845;182;924302;-66
2024/02/21 01:46:22;;;;;;;18.83;6.60;;;;;;;;;;766633;182;915886;-66
2024/02/21 01:48:48;;;;;;;20.33;7.20;;;;;;;;;;762294;183;915820;-66
2024/02/21 01:51:14;;;;;;;14.02;5.12;;;;;;;;;;766888;182;1017295;-66
2024/02/21 01:53:40;;;;;;;16.03;5.67;;;;;;;;;;756734;183;915042;-65
2024/02/21 01:56:06;;;;;;;19.07;5.90;;;;;;;;;;756693;182;911905;-65
2024/02/21 01:58:32;;;;;;;67.67;6.63;;;;;;;;;;762635;181;919410;-66
2024/02/21 02:00:58;;;;;;;10.57;5.30;;;;;;;;;;769449;183;918596;-65
2024/02/21 02:03:25;;;;;;;18.80;5.40;;;;;;;;;;758265;182;919334;-65
2024/02/21 02:05:50;;;;;;;12.93;6.27;;;;;;;;;;758908;183;924340;-65
2024/02/21 02:08:15;;;;;;;17.25;5.30;;;;;;;;;;768631;181;920766;-65
2024/02/21 02:10:41;;;;;;;8.50;4.80;;;;;;;;;;762545;183;918214;-65
2024/02/21 02:13:07;;;;;;;13.77;5.10;;;;;;;;;;756754;183;940290;-65
2024/02/21 02:15:41;;;;;;;16.10;6.07;;;;;;;;;;764949;181;919209;-66
2024/02/21 02:18:07;;;;;;;14.83;5.27;;;;;;;;;;768892;182;906611;-65
2024/02/21 02:20:33;;;;;;;16.40;5.40;;;;;;;;;;759066;183;918204;-65
2024/02/21 02:22:59;;;;;;;14.03;5.10;;;;;;;;;;760572;181;1001865;-66
2024/02/21 02:25:25;;;;;;;15.53;5.87;;;;;;;;;;769706;182;922603;-66
2024/02/21 02:27:52;;;;;;;9.00;6.17;;;;;;;;;;763113;182;931638;-65
2024/02/21 02:30:17;;;;;;;9.67;5.20;;;;;;;;;;762286;183;924581;-65
2024/02/21 02:32:44;;;;;;;18.90;6.00;;;;;;;;;;761490;183;919637;-66
2024/02/21 02:35:10;;;;;;;16.97;5.53;;;;;;;;;;761712;183;919174;-65
2024/02/21 02:37:38;;;;;;;14.67;4.40;;;;;;;;;;765186;182;917561;-65
2024/02/21 02:40:02;;;;;;;10.53;5.60;;;;;;;;;;759238;183;919854;-65
2024/02/21 02:42:28;;;;;;;14.03;6.20;;;;;;;;;;761152;183;918752;-66
2024/02/21 02:44:54;;;;;;;13.93;5.80;;;;;;;;;;760709;182;914628;-66
2024/02/21 02:47:19;;;;;;;11.30;4.97;;;;;;;;;;759694;183;919374;-66
2024/02/21 02:49:50;;;;;;;19.93;6.00;;;;;;;;;;764942;183;920460;-65
2024/02/21 02:52:12;;;;;;;17.60;5.63;;;;;;;;;;760976;183;989443;-66
2024/02/21 02:54:37;;;;;;;10.90;4.93;;;;;;;;;;746360;186;921797;-66
2024/02/21 02:57:05;;;;;;;16.87;5.87;;;;;;;;;;761019;180;1287591;-66
2024/02/21 02:59:29;;;;;;;28.13;5.20;;;;;;;;;;771460;182;915620;-66
2024/02/21 03:01:55;;;;;;;19.80;5.20;;;;;;;;;;764356;182;958800;-66
2024/02/21 03:04:20;;;;;;;10.10;5.07;;;;;;;;;;761923;183;916970;-66
2024/02/21 03:06:46;;;;;;;15.00;5.33;;;;;;;;;;765859;183;918095;-66
2024/02/21 03:09:12;;;;;;;16.20;6.30;;;;;;;;;;765437;181;918435;-66
2024/02/21 03:11:40;;;;;;;13.30;5.82;;;;;;;;;;765048;183;917596;-64
2024/02/21 03:14:04;;;;;;;15.30;5.27;;;;;;;;;;768173;181;916160;-64
2024/02/21 03:16:30;;;;;;;13.07;5.77;;;;;;;;;;757314;184;922822;-66
2024/02/21 03:18:55;;;;;;;14.90;5.75;;;;;;;;;;760236;183;1001084;-65
2024/02/21 03:21:22;;;;;;;9.35;5.25;;;;;;;;;;768182;182;1021060;-65
2024/02/21 03:23:48;;;;;;;17.10;6.27;;;;;;;;;;767443;181;919236;-65
2024/02/21 03:26:16;;;;;;;7.30;5.60;;;;;;;;;;761892;182;918702;-65
2024/02/21 03:28:40;;;;;;;8.20;5.25;;;;;;;;;;764855;181;919030;-66
2024/02/21 03:31:06;;;;;;;16.63;5.57;;;;;;;;;;766992;181;920651;-65
2024/02/21 03:33:32;;;;;;;11.90;5.80;;;;;;;;;;764082;183;930445;-66
2024/02/21 03:35:58;;;;;;;16.77;5.10;;;;;;;;;;762942;182;916248;-65
2024/02/21 03:38:24;;;;;;;13.77;5.93;;;;;;;;;;767865;182;915831;-65
2024/02/21 03:40:50;;;;;;;12.10;5.87;;;;;;;;;;762770;183;916517;-65
2024/02/21 03:43:15;;;;;;;16.13;6.30;;;;;;;;;;764979;182;916170;-65
2024/02/21 03:45:42;;;;;;;15.07;6.55;;;;;;;;;;766419;182;922361;-66
2024/02/21 03:48:08;;;;;;;10.90;5.80;;;;;;;;;;768139;182;921057;-65
2024/02/21 03:50:34;;;;;;;12.83;5.40;;;;;;;;;;761811;182;919586;-65
2024/02/21 03:52:59;;;;;;;10.53;6.70;;;;;;;;;;762521;183;918706;-64
2024/02/21 03:55:25;;;;;;;11.33;5.07;;;;;;;;;;766790;182;918768;-65
2024/02/21 03:57:51;;;;;;;9.20;5.53;;;;;;;;;;761023;180;918734;-65
2024/02/21 04:00:17;;;;;;;15.13;6.87;;;;;;;;;;765151;182;1019968;-65
2024/02/21 04:02:43;;;;;;;13.98;5.68;;;;;;;;;;770299;181;918928;-65
2024/02/21 04:05:10;;;;;;;17.53;7.17;;;;;;;;;;762646;181;917788;-65
2024/02/21 04:07:35;;;;;;;15.53;6.87;;;;;;;;;;759015;181;962231;-65
2024/02/21 04:10:02;;;;;;;21.20;6.13;;;;;;;;;;765199;182;919432;-66
2024/02/21 04:12:27;;;;;;;17.03;6.60;;;;;;;;;;759329;181;919496;-66
2024/02/21 04:14:53;;;;;;;13.30;6.23;;;;;;;;;;765050;182;919080;-65
2024/02/21 04:17:19;;;;;;;17.00;6.40;;;;;;;;;;762339;183;919514;-65
2024/02/21 04:19:45;;;;;;;14.83;6.53;;;;;;;;;;768511;183;918025;-65
2024/02/21 04:22:11;;;;;;;13.33;5.97;;;;;;;;;;761966;183;922703;-66
2024/02/21 04:24:37;;;;;;;17.87;5.40;;;;;;;;;;763853;182;917254;-65
2024/02/21 04:27:03;;;;;;;12.27;6.47;;;;;;;;;;769449;183;919240;-67
2024/02/21 04:29:28;;;;;;;12.40;7.00;;;;;;;;;;759990;182;919231;-64
2024/02/21 04:31:54;;;;;;;14.23;6.37;;;;;;;;;;762991;183;926121;-65
2024/02/21 04:34:20;;;;;;;9.83;5.00;;;;;;;;;;764963;183;1021257;-65
2024/02/21 04:36:46;;;;;;;14.97;6.23;;;;;;;;;;761120;182;971133;-64
2024/02/21 04:39:12;;;;;;;15.77;6.70;;;;;;;;;;760920;183;921802;-64
2024/02/21 04:41:38;;;;;;;8.67;5.10;;;;;;;;;;761658;183;918670;-65
2024/02/21 04:44:04;;;;;;;8.37;4.93;;;;;;;;;;766388;183;918197;-65
2024/02/21 04:46:29;;;;;;;11.90;6.23;;;;;;;;;;763937;183;917560;-65
2024/02/21 04:48:56;;;;;;;7.73;4.80;;;;;;;;;;765171;181;918803;-65
2024/02/21 04:51:21;;;;;;;8.23;5.40;;;;;;;;;;770460;182;636081;-66
2024/02/21 04:53:47;;;;;;;11.47;4.50;;;;;;;;;;763608;182;660538;-65
2024/02/21 04:56:13;;;;;;;12.13;5.47;;;;;;;;;;767344;182;918796;-66
2024/02/21 04:58:39;;;;;;;9.43;4.87;;;;;;;;;;770811;181;625027;-66
2024/02/21 05:01:05;;;;;;;9.70;5.23;;;;;;;;;;765385;182;657667;-64
2024/02/21 05:03:30;;;;;;;8.57;4.83;;;;;;;;;;765482;181;647785;-65
2024/02/21 05:05:56;;;;;;;13.03;5.10;;;;;;;;;;764409;182;651880;-64
2024/02/21 05:08:22;;;;;;;10.93;5.00;;;;;;;;;;769554;183;623992;-65
2024/02/21 05:10:48;;;;;;;10.60;4.73;;;;;;;;;;767700;182;620100;-65
2024/02/21 05:13:14;;;;;;;12.33;4.93;;;;;;;;;;764493;181;645601;-66
2024/02/21 05:15:40;;;;;;;14.63;5.53;;;;;;;;;;771917;180;632100;-65
2024/02/21 05:18:05;;;;;;;14.47;5.27;;;;;;;;;;765495;182;643884;-65
2024/02/21 05:20:31;;;;;;;7.40;4.33;;;;;;;;;;765610;182;640377;-65
2024/02/21 05:22:57;;;;;;;10.77;5.27;;;;;;;;;;771720;182;630536;-66
2024/02/21 05:25:23;;;;;;;10.63;6.00;;;;;;;;;;764270;181;916137;-65
2024/02/21 05:27:49;;;;;;;8.33;4.60;;;;;;;;;;765011;181;659733;-67
2024/02/21 05:30:15;;;;;;;16.07;6.07;;;;;;;;;;763818;183;918969;-65
2024/02/21 05:32:41;;;;;;;16.80;6.00;;;;;;;;;;757542;185;657967;-66
2024/02/21 05:35:07;;;;;;;15.37;6.03;;;;;;;;;;752785;182;908344;-65
2024/02/21 05:37:32;;;;;;;11.97;6.50;;;;;;;;;;762264;182;1020554;-65
2024/02/21 05:39:58;;;;;;;10.57;5.60;;;;;;;;;;771846;183;624935;-66
2024/02/21 05:42:24;;;;;;;15.80;6.87;;;;;;;;;;768610;180;640387;-66
2024/02/21 05:44:50;;;;;;;13.90;6.67;;;;;;;;;;764084;182;640703;-66
2024/02/21 05:47:16;;;;;;;12.53;5.73;;;;;;;;;;769621;182;624743;-65
2024/02/21 05:49:42;;;;;;;12.03;6.37;;;;;;;;;;763200;183;858937;-65
2024/02/21 05:52:08;;;;;;;11.07;6.70;;;;;;;;;;763120;183;918785;-65
2024/02/21 05:54:33;;;;;;;19.47;6.00;;;;;;;;;;768797;183;623734;-66
2024/02/21 05:56:59;;;;;;;15.67;6.60;;;;;;;;;;766606;183;633975;-66
2024/02/21 05:59:25;;;;;;;10.63;6.27;;;;;;;;;;766860;182;637175;-64
2024/02/21 06:01:56;;;;;;;13.33;6.10;;;;;;;;;;761993;183;924057;-65
2024/02/21 06:04:21;;;;;;;11.73;5.40;;;;;;;;;;767231;181;919272;-65
2024/02/21 06:06:46;;;;;;;16.23;6.93;;;;;;;;;;763353;182;919456;-66
2024/02/21 06:09:12;;;;;;;15.73;7.43;;;;;;;;;;761127;183;918234;-66
2024/02/21 06:11:38;;;;;;;10.40;5.57;;;;;;;;;;767056;183;1020435;-66
2024/02/21 06:14:04;;;;;;;16.60;7.17;;;;;;;;;;761303;181;919254;-65
2024/02/21 06:16:30;;;;;;;14.30;5.47;;;;;;;;;;763183;182;1020514;-66
2024/02/21 06:18:56;;;;;;;12.97;6.67;;;;;;;;;;766002;181;895387;-66
2024/02/21 06:21:22;;;;;;;16.17;6.35;;;;;;;;;;761398;183;1083356;-68
2024/02/21 06:23:48;;;;;;;10.83;6.67;;;;;;;;;;750059;183;1229952;-65
2024/02/21 06:26:13;;;;;;;10.97;6.10;;;;;;;;;;760583;181;920921;-65
2024/02/21 06:28:39;;;;;;;12.40;6.70;;;;;;;;;;772155;181;917838;-66
2024/02/21 06:31:05;;;;;;;20.10;5.93;;;;;;;;;;763316;182;921059;-66
2024/02/21 06:33:31;;;;;;;10.10;6.17;;;;;;;;;;761430;182;917947;-65
2024/02/21 06:35:57;;;;;;;13.20;5.50;;;;;;;;;;767743;183;919430;-66
2024/02/21 06:38:23;;;;;;;14.57;6.10;;;;;;;;;;756553;182;1023956;-65
2024/02/21 06:40:51;;;;;;;8.10;5.40;;;;;;;;;;758731;182;914840;-66
2024/02/21 06:43:15;;;;;;;14.13;6.15;;;;;;;;;;768125;181;1017551;-66
2024/02/21 06:45:42;;;;;;;14.67;6.30;;;;;;;;;;766905;182;953153;-66
2024/02/21 06:48:07;;;;;;;13.97;6.70;;;;;;;;;;761058;182;919342;-65
2024/02/21 06:50:33;;;;;;;18.60;7.43;;;;;;;;;;762032;182;952941;-65
2024/02/21 06:52:59;;;;;;;15.47;6.43;;;;;;;;;;769992;182;913995;-65
2024/02/21 06:55:25;;;;;;;11.00;6.97;;;;;;;;;;755157;183;1021993;-65
2024/02/21 06:57:50;;;;;;;11.73;6.40;;;;;;;;;;762565;182;1040970;-65
2024/02/21 07:00:17;;;;;;;16.53;6.30;;;;;;;;;;769098;182;940136;-66
2024/02/21 07:02:43;;;;;;;10.73;5.40;;;;;;;;;;763013;182;919544;-66
2024/02/21 07:05:08;;;;;;;10.60;5.30;;;;;;;;;;761683;183;916406;-65
2024/02/21 07:07:35;;;;;;;8.50;5.40;;;;;;;;;;765624;181;919979;-65
2024/02/21 07:10:00;;;;;;;19.80;8.30;;;;;;;;;;762913;181;917652;-64
2024/02/21 07:12:26;;;;;;;15.37;6.57;;;;;;;;;;760737;183;919648;-65
2024/02/21 07:14:52;;;;;;;14.03;5.73;;;;;;;;;;761047;182;920582;-66
2024/02/21 07:17:18;;;;;;;16.87;6.37;;;;;;;;;;766206;182;1014900;-65
2024/02/21 07:19:44;;;;;;;11.68;5.47;;;;;;;;;;763409;182;911893;-64
2024/02/21 07:22:09;;;;;;;10.07;5.80;;;;;;;;;;757246;182;922806;-66
2024/02/21 07:24:35;;;;;;;11.43;5.40;;;;;;;;;;769139;183;927991;-63
2024/02/21 07:27:04;;;;;;;14.90;7.00;;;;;;;;;;760490;182;918184;-66
2024/02/21 07:29:27;;;;;;;9.43;5.77;;;;;;;;;;759383;183;920964;-65
2024/02/21 07:31:53;;;;;;;18.50;5.57;;;;;;;;;;769378;182;909457;-66
2024/02/21 07:34:19;;;;;;;11.30;5.17;;;;;;;;;;763735;183;918382;-65
2024/02/21 07:36:45;;;;;;;11.13;5.73;;;;;;;;;;761433;182;920148;-66
2024/02/21 07:39:11;;;;;;;9.98;5.50;;;;;;;;;;764701;181;1020400;-66
2024/02/21 07:41:38;;;;;;;9.70;4.83;;;;;;;;;;766908;182;936239;-66
2024/02/21 07:44:03;;;;;;;11.37;4.50;;;;;;;;;;763669;181;920342;-65
2024/02/21 07:46:28;;;;;;;17.53;6.07;;;;;;;;;;761873;182;944052;-66
2024/02/21 07:48:54;;;;;;;9.70;5.90;;;;;;;;;;769890;181;943875;-65
2024/02/21 07:51:20;;;;;;;17.90;5.13;;;;;;;;;;759706;183;1018878;-65
2024/02/21 07:53:47;;;;;;;9.77;4.13;;;;;;;;;;762380;182;935940;-66
2024/02/21 07:56:12;;;;;;;10.53;3.70;;;;;;;;;;771043;183;851512;-65
2024/02/21 07:58:38;;;;;;;10.80;3.93;;;;;;;;;;763251;182;910892;-66
2024/02/21 08:01:04;;;;;;;10.57;3.43;;;;;;;;;;760288;182;983227;-66
2024/02/21 08:03:29;;;;;;;15.13;4.97;;;;;;;;;;760079;182;915818;-66
2024/02/21 08:05:55;;;;;;;10.23;5.00;;;;;;;;;;756114;184;855237;-65
2024/02/21 08:08:21;;;;;;;13.00;4.70;;;;;;;;;;757087;182;919521;-65
2024/02/21 08:10:47;;;;;;;12.97;5.37;;;;;;;;;;763513;183;918263;-63
2024/02/21 08:13:13;;;;;;;10.77;4.73;;;;;;;;;;767480;183;943795;-65
2024/02/21 08:15:39;;;;;;;9.60;3.90;;;;;;;;;;763963;182;919671;-66
2024/02/21 08:18:05;;;;;;;11.00;3.93;;;;;;;;;;762519;182;916817;-66
2024/02/21 08:20:30;;;;;;;10.03;4.07;;;;;;;;;;768896;182;916357;-66
2024/02/21 08:22:56;;;;;;;12.30;3.90;;;;;;;;;;762207;181;918644;-66
2024/02/21 08:25:22;;;;;;;9.35;4.30;;;;;;;;;;761485;183;942257;-66
2024/02/21 08:27:48;;;;;;;12.77;5.03;;;;;;;;;;765564;181;919185;-66
2024/02/21 08:30:14;;;;;;;8.43;3.43;;;;;;;;;;764689;182;928067;-66
2024/02/21 08:32:40;;;;;;;8.00;4.03;;;;;;;;;;760298;183;916016;-66
2024/02/21 08:35:06;;;;;;;6.82;3.85;;;;;;;;;;759647;183;945884;-66
2024/02/21 08:37:32;;;;;;;7.53;3.30;;;;;;;;;;768544;183;948327;-66
2024/02/21 08:39:58;;;;;;;9.00;5.83;;;;;;;;;;760826;182;916602;-66
2024/02/21 08:42:24;;;;;;;9.27;4.73;;;;;;;;;;762068;181;914516;-65
2024/02/21 08:44:50;;;;;;;11.87;5.90;;;;;;;;;;755242;184;914859;-66
2024/02/21 08:47:16;;;;;;;7.40;4.53;;;;;;;;;;757942;180;1390080;-66
2024/02/21 08:49:42;;;;;;;10.97;3.97;;;;;;;;;;763409;181;1018061;-66
2024/02/21 08:52:08;;;;;;;10.35;3.97;;;;;;;;;;761187;181;1011697;-67
2024/02/21 08:54:34;;;;;;;7.60;4.07;;;;;;;;;;762731;181;928406;-65
2024/02/21 08:57:00;;;;;;;8.63;4.70;;;;;;;;;;760373;182;988878;-65
2024/02/21 08:59:26;;;;;;;13.10;5.22;;;;;;;;;;761343;183;1018626;-66
2024/02/21 09:01:53;;;;;;;9.13;3.60;;;;;;;;;;769158;183;918553;-66
2024/02/21 09:04:17;;;;;;;11.23;4.20;;;;;;;;;;754616;182;1012328;-67
2024/02/21 09:06:43;;;;;;;7.37;4.30;;;;;;;;;;760608;182;924630;-66
2024/02/21 09:09:09;;;;;;;13.20;5.10;;;;;;;;;;767982;182;917765;-66
2024/02/21 09:11:35;;;;;;;8.00;3.80;;;;;;;;;;763869;182;958363;-66
2024/02/21 09:14:01;;;;;;;11.27;5.30;;;;;;;;;;762433;182;919093;-66
2024/02/21 09:16:26;;;;;;;10.53;4.23;;;;;;;;;;769198;181;963803;-66
2024/02/21 09:18:52;;;;;;;10.20;5.60;;;;;;;;;;764551;183;981385;-66
2024/02/21 09:21:18;;;;;;;7.73;3.97;;;;;;;;;;761166;182;918887;-66
2024/02/21 09:23:44;;;;;;;10.30;4.90;;;;;;;;;;762689;182;923160;-67
2024/02/21 09:26:13;;;;;;;8.37;4.80;;;;;;;;;;769669;183;919700;-66
2024/02/21 09:28:36;;;;;;;8.80;4.47;;;;;;;;;;760911;183;917615;-67
2024/02/21 09:31:02;;;;;;;9.13;4.10;;;;;;;;;;763033;182;923065;-67
2024/02/21 09:33:27;;;;;;;13.83;5.23;;;;;;;;;;770624;181;918810;-67
2024/02/21 09:35:53;;;;;;;18.83;4.97;;;;;;;;;;762683;182;920247;-66
2024/02/21 09:38:19;;;;;;;10.30;4.37;;;;;;;;;;762548;181;918941;-66
2024/02/21 09:40:45;;;;;;;11.47;5.00;;;;;;;;;;766585;182;919081;-67
2024/02/21 09:43:11;;;;;;;9.93;4.17;;;;;;;;;;764777;180;918372;-66
2024/02/21 09:45:37;;;;;;;15.13;4.60;;;;;;;;;;764483;181;922820;-67
2024/02/21 09:48:13;;;;;;;11.03;5.50;;;;;;;;;;761943;183;940055;-67
2024/02/21 09:50:40;;;;;;;14.10;5.83;;;;;;;;;;767031;182;919710;-67
2024/02/21 09:53:05;;;;;;;13.17;4.73;;;;;;;;;;761504;181;919991;-66
2024/02/21 09:55:34;;;;;;;8.27;4.73;;;;;;;;;;761080;183;919211;-66
2024/02/21 09:57:57;;;;;;;7.93;4.67;;;;;;;;;;761052;183;919546;-67
2024/02/21 10:00:23;;;;;;;10.13;4.87;;;;;;;;;;757272;182;914939;-66
2024/02/21 10:02:50;;;;;;;16.13;7.87;;;;;;;;;;750540;182;918327;-66
2024/02/21 10:05:14;;;;;;;8.43;5.28;;;;;;;;;;762712;182;1020947;-67
2024/02/21 10:07:40;;;;;;;8.43;4.60;;;;;;;;;;771389;182;918268;-66
2024/02/21 10:10:07;;;;;;;10.27;4.40;;;;;;;;;;762766;181;917252;-66
2024/02/21 10:12:32;;;;;;;15.50;5.83;;;;;;;;;;762294;182;918157;-66
2024/02/21 10:15:04;;;;;;;15.17;6.60;;;;;;;;;;767771;183;932779;-66
2024/02/21 10:17:29;;;;;;;16.93;5.53;;;;;;;;;;760630;183;1023122;-66
2024/02/21 10:19:55;;;;;;;13.63;5.30;;;;;;;;;;762866;182;920038;-66
2024/02/21 10:22:21;;;;;;;10.27;5.32;;;;;;;;;;761874;183;919588;-67
2024/02/21 10:24:47;;;;;;;9.50;4.90;;;;;;;;;;768208;181;919430;-66
2024/02/21 10:27:13;;;;;;;8.47;4.80;;;;;;;;;;758679;183;919717;-66
2024/02/21 10:29:39;;;;;;;9.75;4.15;;;;;;;;;;763805;181;969996;-66
2024/02/21 10:32:06;;;;;;;12.63;5.30;;;;;;;;;;762797;183;977605;-66
2024/02/21 10:34:31;;;;;;;8.90;4.40;;;;;;;;;;761503;182;917970;-66
2024/02/21 10:36:59;;;;;;;10.00;4.43;;;;;;;;;;761133;183;919937;-65
2024/02/21 10:39:25;;;;;;;17.10;6.70;;;;;;;;;;762032;183;1047389;-66
2024/02/21 10:41:51;;;;;;;11.30;4.90;;;;;;;;;;752285;184;912007;-65
2024/02/21 10:44:17;;;;;;;17.40;5.50;;;;;;;;;;749930;184;916400;-66
2024/02/21 10:46:42;;;;;;;15.50;6.07;;;;;;;;;;762394;183;915628;-66
2024/02/21 10:49:11;;;;;;;13.13;4.97;;;;;;;;;;768739;182;915519;-65
2024/02/21 10:51:37;;;;;;;15.80;4.80;;;;;;;;;;763951;183;929970;-66
2024/02/21 10:54:04;;;;;;;16.57;5.70;;;;;;;;;;756620;182;914471;-65
2024/02/21 10:56:35;;;;;;;13.70;5.20;;;;;;;;;;767357;182;918160;-67
2024/02/21 10:58:58;;;;;;;14.40;5.60;;;;;;;;;;763623;183;1020521;-67
2024/02/21 11:01:26;;;;;;;8.10;3.93;;;;;;;;;;769488;181;918780;-66
2024/02/21 11:03:49;;;;;;;11.60;4.80;;;;;;;;;;760630;182;919726;-65
2024/02/21 11:06:15;;;;;;;11.43;4.10;;;;;;;;;;764147;182;1123550;-66
2024/02/21 11:08:41;;;;;;;12.40;4.70;;;;;;;;;;760983;182;914510;-65
2024/02/21 11:11:07;;;;;;;7.70;3.47;;;;;;;;;;760783;180;915095;-66
2024/02/21 11:13:36;;;;;;;15.23;4.83;;;;;;;;;;770775;182;901567;-65
2024/02/21 11:16:05;;;;;;;12.10;4.20;;;;;;;;;;765060;182;913953;-65
2024/02/21 11:18:31;;;;;;;13.70;4.47;;;;;;;;;;764455;182;927391;-67
2024/02/21 11:20:57;;;;;;;7.50;4.07;;;;;;;;;;764218;183;919217;-66
2024/02/21 11:23:27;;;;;;;11.80;4.77;;;;;;;;;;769989;182;886676;-66
2024/02/21 11:25:53;;;;;;;10.83;4.77;;;;;;;;;;763002;182;1019110;-65
2024/02/21 11:28:18;;;;;;;14.63;5.33;;;;;;;;;;763811;182;1009876;-66
2024/02/21 11:30:45;;;;;;;8.87;4.17;;;;;;;;;;766232;182;1022126;-66
2024/02/21 11:33:10;;;;;;;11.93;4.40;;;;;;;;;;765663;182;932304;-66
2024/02/21 11:35:36;;;;;;;17.35;4.70;;;;;;;;;;759941;183;1125647;-66
2024/02/21 11:38:09;;;;;;;9.93;5.20;;;;;;;;;;761003;181;919739;-67
2024/02/21 11:40:34;;;;;;;13.77;4.83;;;;;;;;;;764480;181;920513;-66
2024/02/21 11:42:59;;;;;;;9.43;4.97;;;;;;;;;;760663;181;925400;-66
2024/02/21 11:45:26;;;;;;;9.23;5.47;;;;;;;;;;763157;182;915148;-66
2024/02/21 11:47:51;;;;;;;10.27;4.00;;;;;;;;;;768127;183;934907;-63
2024/02/21 11:50:17;;;;;;;13.20;5.23;;;;;;;;;;757456;182;1017055;-67
2024/02/21 11:52:43;;;;;;;9.90;4.65;;;;;;;;;;760810;183;912566;-65
2024/02/21 11:55:09;;;;;;;12.53;4.17;;;;;;;;;;746869;185;916597;-62
2024/02/21 11:57:41;;;;;;;11.20;3.97;;;;;;;;;;751330;186;916911;-63
2024/02/21 12:00:01;;;;;;;13.60;5.63;;;;;;;;;;747143;184;1019333;-65
2024/02/21 12:02:26;;;;;;;10.80;4.53;;;;;;;;;;747804;185;863414;-63
2024/02/21 12:04:54;;;;;;;10.57;4.37;;;;;;;;;;753150;184;924959;-65
2024/02/21 12:07:18;;;;;;;14.23;4.27;;;;;;;;;;752660;184;918962;-63
2024/02/21 12:09:44;;;;;;;10.10;4.73;;;;;;;;;;748163;185;914800;-66
2024/02/21 12:12:10;;;;;;;12.47;4.37;;;;;;;;;;754066;185;896718;-63
2024/02/21 12:14:36;;;;;;;8.60;4.50;;;;;;;;;;748366;185;912413;-64
2024/02/21 12:17:03;;;;;;;7.07;4.43;;;;;;;;;;741184;185;819525;-62
2024/02/21 12:19:29;;;;;;;14.03;3.97;;;;;;;;;;753402;187;918388;-63
2024/02/21 12:21:57;;;;;;;8.33;3.93;;;;;;;;;;754035;185;1020400;-63
2024/02/21 12:24:21;;;;;;;27.47;5.93;;;;;;;;;;750991;184;916395;-63
2024/02/21 12:26:47;;;;;;;12.07;3.80;;;;;;;;;;752219;185;922808;-63
2024/02/21 12:29:12;;;;;;;9.63;5.03;;;;;;;;;;753239;185;918697;-65
2024/02/21 12:31:38;;;;;;;7.53;3.60;;;;;;;;;;750587;185;914502;-62
2024/02/21 12:34:04;;;;;;;10.63;4.78;;;;;;;;;;752183;184;919792;-64
2024/02/21 12:36:31;;;;;;;9.93;4.87;;;;;;;;;;753724;184;919066;-63
2024/02/21 12:38:57;;;;;;;9.53;5.37;;;;;;;;;;749156;184;918377;-66
2024/02/21 12:41:25;;;;;;;14.30;4.93;;;;;;;;;;750330;185;914690;-62
2024/02/21 12:43:48;;;;;;;19.83;5.10;;;;;;;;;;747722;185;920991;-63
2024/02/21 12:46:14;;;;;;;20.93;5.60;;;;;;;;;;751077;185;928052;-62
2024/02/21 12:48:40;;;;;;;9.57;4.63;;;;;;;;;;749772;185;865004;-65
2024/02/21 12:51:06;;;;;;;33.83;17.00;;;;;;;;;;750416;185;917990;-63
2024/02/21 12:53:32;;;;;;;15.00;6.00;;;;;;;;;;752946;185;919640;-65
2024/02/21 12:55:58;;;;;;;15.17;8.43;;;;;;;;;;749149;185;919224;-63
2024/02/21 12:58:24;;;;;;;22.73;7.13;;;;;;;;;;751915;185;922495;-63
2024/02/21 13:00:49;;;;;;;15.83;5.77;;;;;;;;;;753268;185;918481;-63
2024/02/21 13:03:15;;;;;;;12.83;5.90;;;;;;;;;;746873;185;926210;-63
2024/02/21 13:05:41;;;;;;;12.87;5.40;;;;;;;;;;747810;184;935836;-63
2024/02/21 13:08:07;;;;;;;13.63;5.23;;;;;;;;;;753072;185;917780;-63
2024/02/21 13:10:34;;;;;;;19.10;5.10;;;;;;;;;;750828;185;919553;-63
2024/02/21 13:12:59;;;;;;;10.30;5.47;;;;;;;;;;749530;185;910227;-63
2024/02/21 13:15:25;;;;;;;10.83;4.83;;;;;;;;;;750073;185;919489;-63
2024/02/21 13:17:50;;;;;;;10.10;4.60;;;;;;;;;;755706;185;962971;-64
2024/02/21 13:20:16;;;;;;;9.93;4.63;;;;;;;;;;753598;185;920015;-63
2024/02/21 13:22:42;;;;;;;11.80;4.40;;;;;;;;;;752681;185;920187;-64
2024/02/21 13:25:08;;;;;;;10.40;5.17;;;;;;;;;;752871;185;817559;-65
2024/02/21 13:27:34;;;;;;;10.33;5.17;;;;;;;;;;748325;185;919206;-64
2024/02/21 13:30:02;;;;;;;10.80;4.40;;;;;;;;;;748671;185;921107;-66
2024/02/21 13:32:26;;;;;;;15.43;5.00;;;;;;;;;;756299;184;841053;-66
2024/02/21 13:34:52;;;;;;;8.70;4.07;;;;;;;;;;750519;184;816941;-63
2024/02/21 13:37:18;;;;;;;13.90;4.37;;;;;;;;;;749864;184;919222;-63
2024/02/21 13:39:43;;;;;;;19.90;4.90;;;;;;;;;;751517;184;815547;-64
2024/02/21 13:42:09;;;;;;;7.40;4.13;;;;;;;;;;755278;185;917656;-64
2024/02/21 13:44:36;;;;;;;10.50;5.00;;;;;;;;;;752809;184;918098;-63
2024/02/21 13:47:01;;;;;;;9.10;4.60;;;;;;;;;;746203;185;883469;-63
2024/02/21 13:49:28;;;;;;;17.10;5.50;;;;;;;;;;753938;185;876388;-63
2024/02/21 13:51:52;;;;;;;9.00;5.03;;;;;;;;;;748907;185;862467;-62
2024/02/21 13:54:19;;;;;;;9.53;4.27;;;;;;;;;;749980;185;915884;-62
2024/02/21 13:56:44;;;;;;;7.77;4.77;;;;;;;;;;752926;184;921099;-62
2024/02/21 13:59:10;;;;;;;23.37;5.17;;;;;;;;;;750168;184;847790;-66
2024/02/21 14:01:36;;;;;;;9.88;4.87;;;;;;;;;;746920;185;920332;-66
2024/02/21 14:04:02;;;;;;;13.80;7.33;;;;;;;;;;750344;185;919404;-63
2024/02/21 14:06:27;;;;;;;8.63;4.40;;;;;;;;;;755788;181;922015;-65
2024/02/21 14:08:54;;;;;;;9.40;4.97;;;;;;;;;;749466;185;919185;-65
2024/02/21 14:11:19;;;;;;;17.30;6.13;;;;;;;;;;748607;185;918244;-65